Time;durP1;ratioP1;P1;durP2;ratioP2;P2;SDS_P1;SDS_P2;PMS_P1;PMS_P2;Temp;Humidity;BMP_temperature;BMP_pressure;BME280_temperature;BME280_humidity;BME280_pressure;Samples;Min_cycle;Max_cycle;Signal;HPM_P1;HPM_P2
2023/04/13 00:00:30;;;;;;;11.43;1.98;;;;;;;;;;5112237;28;20027;-76
2023/04/13 00:02:56;;;;;;;13.43;3.75;;;;;;;;;;5111347;28;20368;-77
2023/04/13 00:05:23;;;;;;;8.43;1.65;;;;;;;;;;5111565;28;20385;-76
2023/04/13 00:07:49;;;;;;;24.17;2.95;;;;;;;;;;5111463;28;20077;-76
2023/04/13 00:10:17;;;;;;;10.57;2.28;;;;;;;;;;5111521;28;20463;-78
2023/04/13 00:12:46;;;;;;;12.45;3.72;;;;;;;;;;5111930;28;20024;-77
2023/04/13 00:15:14;;;;;;;20.90;3.17;;;;;;;;;;5111895;28;20076;-76
2023/04/13 00:17:41;;;;;;;17.40;2.60;;;;;;;;;;5111217;28;20034;-77
2023/04/13 00:20:11;;;;;;;11.32;2.53;;;;;;;;;;5112793;28;20020;-78
2023/04/13 00:22:37;;;;;;;9.20;2.05;;;;;;;;;;5110034;28;20027;-78
2023/04/13 00:25:04;;;;;;;15.00;2.28;;;;;;;;;;5111285;28;20016;-77
2023/04/13 00:27:30;;;;;;;13.13;2.47;;;;;;;;;;5109761;28;20036;-78
2023/04/13 00:29:56;;;;;;;16.05;2.70;;;;;;;;;;5114768;28;20020;-79
2023/04/13 00:32:23;;;;;;;11.95;1.50;;;;;;;;;;5115556;28;20059;-78
2023/04/13 00:34:49;;;;;;;9.05;2.03;;;;;;;;;;5115354;28;20024;-80
2023/04/13 00:37:15;;;;;;;9.55;1.75;;;;;;;;;;5113592;28;20126;-79
2023/04/13 00:39:42;;;;;;;18.30;2.15;;;;;;;;;;5114634;28;20027;-79
2023/04/13 00:42:08;;;;;;;9.65;1.48;;;;;;;;;;5115141;28;20020;-78
2023/04/13 00:44:35;;;;;;;3.92;1.80;;;;;;;;;;5115081;28;20108;-79
2023/04/13 00:47:04;;;;;;;7.57;1.67;;;;;;;;;;5114781;28;20048;-79
2023/04/13 00:49:32;;;;;;;9.48;1.83;;;;;;;;;;5114735;28;20114;-79
2023/04/13 00:51:59;;;;;;;12.23;1.52;;;;;;;;;;5114945;28;20059;-80
2023/04/13 00:54:26;;;;;;;13.35;2.03;;;;;;;;;;5114731;28;20016;-79
2023/04/13 00:56:53;;;;;;;6.57;1.65;;;;;;;;;;5114443;28;20028;-79
2023/04/13 00:59:19;;;;;;;14.95;2.45;;;;;;;;;;5114887;28;20047;-79
2023/04/13 01:01:49;;;;;;;11.85;1.98;;;;;;;;;;5114659;28;20028;-79
2023/04/13 01:04:18;;;;;;;11.82;2.13;;;;;;;;;;5114786;27;20019;-80
2023/04/13 01:06:50;;;;;;;19.73;2.33;;;;;;;;;;5115018;28;20165;-79
2023/04/13 01:09:20;;;;;;;17.00;2.15;;;;;;;;;;5114870;28;20444;-78
2023/04/13 01:11:49;;;;;;;5.45;1.73;;;;;;;;;;5114709;28;20027;-81
2023/04/13 01:14:28;;;;;;;13.88;3.15;;;;;;;;;;5114643;28;20507;-80
2023/04/13 01:16:56;;;;;;;10.57;3.08;;;;;;;;;;5114746;28;20097;-78
2023/04/13 01:19:28;;;;;;;13.27;2.03;;;;;;;;;;5114183;28;20027;-81
2023/04/13 01:21:55;;;;;;;16.50;2.17;;;;;;;;;;5114750;28;20028;-80
2023/04/13 01:24:21;;;;;;;8.60;2.22;;;;;;;;;;5114072;28;20438;-81
2023/04/13 01:26:57;;;;;;;9.57;2.00;;;;;;;;;;5114262;28;20059;-80
2023/04/13 01:29:24;;;;;;;20.05;2.28;;;;;;;;;;5114104;28;20053;-81
2023/04/13 01:31:53;;;;;;;9.93;2.35;;;;;;;;;;5114110;28;20034;-81
2023/04/13 01:34:19;;;;;;;13.35;1.83;;;;;;;;;;5114938;28;20028;-81
2023/04/13 01:36:46;;;;;;;17.63;3.72;;;;;;;;;;5114626;28;20039;-80
2023/04/13 01:39:21;;;;;;;17.17;2.55;;;;;;;;;;5113618;28;20472;-81
2023/04/13 01:41:47;;;;;;;19.73;2.72;;;;;;;;;;5114266;28;20031;-80
2023/04/13 01:44:13;;;;;;;11.85;2.00;;;;;;;;;;5114381;28;20106;-80
2023/04/13 01:46:42;;;;;;;14.32;4.68;;;;;;;;;;5113919;28;20051;-81
2023/04/13 01:49:09;;;;;;;7.93;1.98;;;;;;;;;;5114322;28;20383;-82
2023/04/13 01:51:37;;;;;;;15.18;3.10;;;;;;;;;;5113671;28;20078;-83
2023/04/13 01:54:06;;;;;;;16.67;2.85;;;;;;;;;;5113798;28;20020;-81
2023/04/13 01:56:33;;;;;;;23.02;2.78;;;;;;;;;;5114706;28;20050;-81
2023/04/13 01:59:00;;;;;;;12.23;2.20;;;;;;;;;;5113642;28;20020;-81
2023/04/13 02:01:26;;;;;;;8.57;1.88;;;;;;;;;;5114054;28;20015;-82
2023/04/13 02:03:52;;;;;;;18.30;2.75;;;;;;;;;;5113464;28;20058;-82
2023/04/13 02:06:18;;;;;;;8.80;1.45;;;;;;;;;;5112439;28;20028;-81
2023/04/13 02:08:44;;;;;;;10.00;2.03;;;;;;;;;;5113534;28;20023;-81
2023/04/13 02:11:11;;;;;;;15.63;2.75;;;;;;;;;;5113245;28;20020;-81
2023/04/13 02:13:37;;;;;;;10.48;2.30;;;;;;;;;;5112676;28;20092;-81
2023/04/13 02:16:05;;;;;;;8.35;1.80;;;;;;;;;;5113391;28;20062;-82
2023/04/13 02:18:32;;;;;;;12.02;2.20;;;;;;;;;;5113795;28;20076;-81
2023/04/13 02:21:06;;;;;;;13.95;1.83;;;;;;;;;;5116951;28;20305;-82
2023/04/13 02:23:33;;;;;;;10.13;1.75;;;;;;;;;;5132246;28;20028;-81
2023/04/13 02:25:59;;;;;;;12.57;2.75;;;;;;;;;;5116232;28;20024;-83
2023/04/13 02:28:26;;;;;;;8.07;2.17;;;;;;;;;;5118610;28;20055;-84
2023/04/13 02:30:53;;;;;;;8.38;1.52;;;;;;;;;;5116715;28;20371;-81
2023/04/13 02:33:20;;;;;;;5.57;1.80;;;;;;;;;;5115007;28;20208;-82
2023/04/13 02:35:47;;;;;;;12.02;2.13;;;;;;;;;;5114136;28;20375;-82
2023/04/13 02:38:14;;;;;;;18.02;2.25;;;;;;;;;;5114598;28;20015;-82
2023/04/13 02:40:41;;;;;;;18.60;2.50;;;;;;;;;;5114914;28;20032;-83
2023/04/13 02:43:08;;;;;;;12.05;2.05;;;;;;;;;;5113628;28;20403;-82
2023/04/13 02:45:35;;;;;;;13.82;2.63;;;;;;;;;;5113581;28;20044;-82
2023/04/13 02:48:03;;;;;;;15.32;3.17;;;;;;;;;;5113291;28;20016;-82
2023/04/13 02:50:29;;;;;;;22.25;2.95;;;;;;;;;;5113273;28;20157;-82
2023/04/13 02:52:55;;;;;;;10.70;3.28;;;;;;;;;;5112565;28;20055;-82
2023/04/13 02:55:21;;;;;;;18.48;2.72;;;;;;;;;;5113469;28;20024;-82
2023/04/13 02:57:48;;;;;;;8.23;2.25;;;;;;;;;;5112454;28;20509;-81
2023/04/13 03:00:15;;;;;;;14.02;2.33;;;;;;;;;;5113424;28;20042;-80
2023/04/13 03:02:41;;;;;;;18.40;2.75;;;;;;;;;;5113015;28;20032;-82
2023/04/13 03:05:08;;;;;;;11.90;1.92;;;;;;;;;;5112578;28;20468;-82
2023/04/13 03:07:35;;;;;;;13.13;2.55;;;;;;;;;;5113410;28;20050;-82
2023/04/13 03:10:04;;;;;;;11.02;2.70;;;;;;;;;;5112538;28;20093;-81
2023/04/13 03:12:30;;;;;;;21.90;2.67;;;;;;;;;;5114942;28;20032;-82
2023/04/13 03:14:56;;;;;;;15.70;2.85;;;;;;;;;;5115913;28;20024;-82
2023/04/13 03:17:22;;;;;;;12.95;2.25;;;;;;;;;;5114323;28;20031;-82
2023/04/13 03:19:49;;;;;;;11.80;2.03;;;;;;;;;;5112711;28;20492;-82
2023/04/13 03:22:16;;;;;;;9.75;2.20;;;;;;;;;;5112727;28;20061;-82
2023/04/13 03:24:42;;;;;;;16.50;2.55;;;;;;;;;;5113649;28;20108;-83
2023/04/13 03:27:08;;;;;;;13.82;2.22;;;;;;;;;;5113264;28;20036;-82
2023/04/13 03:29:34;;;;;;;11.85;1.92;;;;;;;;;;5116426;28;20015;-82
2023/04/13 03:32:00;;;;;;;9.95;2.90;;;;;;;;;;5112812;28;20042;-82
2023/04/13 03:34:26;;;;;;;10.73;2.15;;;;;;;;;;5113822;28;20033;-82
2023/04/13 03:36:52;;;;;;;15.73;2.88;;;;;;;;;;5112259;28;20122;-83
2023/04/13 03:39:18;;;;;;;9.77;1.75;;;;;;;;;;5112380;28;20072;-80
2023/04/13 03:41:44;;;;;;;16.42;2.75;;;;;;;;;;5111987;28;20038;-82
2023/04/13 03:44:10;;;;;;;13.90;2.63;;;;;;;;;;5110733;28;20085;-82
2023/04/13 03:46:36;;;;;;;12.73;2.25;;;;;;;;;;5112837;28;20051;-82
2023/04/13 03:49:07;;;;;;;15.75;2.92;;;;;;;;;;5112232;28;20027;-82
2023/04/13 03:51:33;;;;;;;11.27;1.60;;;;;;;;;;5113187;28;20051;-82
2023/04/13 03:53:59;;;;;;;7.78;1.98;;;;;;;;;;5112560;28;20102;-81
2023/04/13 03:56:25;;;;;;;13.98;2.92;;;;;;;;;;5112714;28;20433;-84
2023/04/13 03:58:52;;;;;;;10.27;2.15;;;;;;;;;;5113362;28;20028;-83
2023/04/13 04:01:18;;;;;;;17.58;1.95;;;;;;;;;;5112031;28;20380;-83
2023/04/13 04:03:44;;;;;;;13.38;2.60;;;;;;;;;;5116050;28;20019;-83
2023/04/13 04:06:11;;;;;;;16.60;2.75;;;;;;;;;;5116129;28;20027;-83
2023/04/13 04:08:37;;;;;;;9.50;2.15;;;;;;;;;;5114873;28;20503;-82
2023/04/13 04:11:03;;;;;;;9.60;2.00;;;;;;;;;;5117105;28;20440;-83
2023/04/13 04:13:30;;;;;;;12.02;2.50;;;;;;;;;;5114947;28;20086;-83
2023/04/13 04:15:57;;;;;;;11.57;2.35;;;;;;;;;;5116757;28;20553;-84
2023/04/13 04:18:23;;;;;;;12.70;2.22;;;;;;;;;;5115905;28;20031;-82
2023/04/13 04:20:49;;;;;;;11.13;2.97;;;;;;;;;;5115790;28;20026;-83
2023/04/13 04:23:16;;;;;;;5.40;1.98;;;;;;;;;;5116685;28;20027;-83
2023/04/13 04:25:44;;;;;;;13.07;2.13;;;;;;;;;;5116236;28;20015;-83
2023/04/13 04:28:16;;;;;;;11.27;2.50;;;;;;;;;;5116663;28;20063;-83
2023/04/13 04:30:44;;;;;;;9.40;2.10;;;;;;;;;;5129740;28;20492;-83
2023/04/13 04:33:13;;;;;;;7.18;1.83;;;;;;;;;;5125995;28;20395;-83
2023/04/13 04:35:42;;;;;;;12.55;2.42;;;;;;;;;;5117221;28;20460;-82
2023/04/13 04:38:08;;;;;;;15.73;2.10;;;;;;;;;;5115689;28;20024;-83
2023/04/13 04:40:34;;;;;;;14.30;2.30;;;;;;;;;;5116620;28;20072;-82
2023/04/13 04:43:03;;;;;;;11.20;1.70;;;;;;;;;;5118246;28;20369;-82
2023/04/13 04:45:31;;;;;;;10.98;2.00;;;;;;;;;;5121740;28;20036;-83
2023/04/13 04:47:57;;;;;;;13.98;2.35;;;;;;;;;;5122269;28;20041;-85
2023/04/13 04:50:24;;;;;;;12.15;1.98;;;;;;;;;;5121671;28;20551;-82
2023/04/13 04:52:50;;;;;;;9.63;2.08;;;;;;;;;;5116639;28;20376;-83
2023/04/13 04:55:16;;;;;;;12.60;1.80;;;;;;;;;;5118803;28;20545;-83
2023/04/13 04:57:42;;;;;;;12.20;2.40;;;;;;;;;;5116202;28;20119;-83
2023/04/13 05:00:09;;;;;;;10.77;2.30;;;;;;;;;;5116008;28;20190;-83
2023/04/13 05:02:35;;;;;;;23.92;2.78;;;;;;;;;;5116295;28;20411;-84
2023/04/13 05:05:02;;;;;;;15.38;2.60;;;;;;;;;;5115452;28;20020;-84
2023/04/13 05:07:29;;;;;;;13.63;2.65;;;;;;;;;;5114376;28;20020;-83
2023/04/13 05:09:55;;;;;;;11.00;2.80;;;;;;;;;;5115646;28;20073;-83
2023/04/13 05:12:21;;;;;;;14.30;2.80;;;;;;;;;;5116164;28;20034;-83
2023/04/13 05:14:47;;;;;;;9.35;2.70;;;;;;;;;;5114458;28;20035;-82
2023/04/13 05:17:17;;;;;;;10.52;2.28;;;;;;;;;;5115292;28;20028;-83
2023/04/13 05:19:44;;;;;;;22.10;2.65;;;;;;;;;;5115535;28;20012;-84
2023/04/13 05:22:10;;;;;;;19.80;3.13;;;;;;;;;;5115258;28;20027;-82
2023/04/13 05:24:37;;;;;;;9.15;2.08;;;;;;;;;;5116510;28;20035;-83
2023/04/13 05:27:03;;;;;;;8.50;1.60;;;;;;;;;;5115438;28;20215;-83
2023/04/13 05:29:29;;;;;;;23.80;3.15;;;;;;;;;;5116209;28;20028;-83
2023/04/13 05:31:58;;;;;;;14.02;2.47;;;;;;;;;;5113766;28;20488;-82
2023/04/13 05:34:25;;;;;;;7.03;1.45;;;;;;;;;;5115703;27;20027;-83
2023/04/13 05:36:52;;;;;;;11.27;1.80;;;;;;;;;;5113639;28;20027;-83
2023/04/13 05:39:18;;;;;;;14.55;1.48;;;;;;;;;;5115539;28;20020;-84
2023/04/13 05:41:44;;;;;;;9.82;1.70;;;;;;;;;;5116654;28;20083;-84
2023/04/13 05:44:10;;;;;;;13.55;1.80;;;;;;;;;;5115291;28;20050;-84
2023/04/13 05:46:36;;;;;;;10.13;2.17;;;;;;;;;;5117821;28;20044;-83
2023/04/13 05:49:03;;;;;;;18.20;2.38;;;;;;;;;;5119638;28;20035;-84
2023/04/13 05:51:30;;;;;;;13.82;2.00;;;;;;;;;;5123874;28;20076;-83
2023/04/13 05:53:56;;;;;;;13.30;2.35;;;;;;;;;;5122914;28;20035;-83
2023/04/13 05:56:23;;;;;;;14.07;2.55;;;;;;;;;;5118994;28;20034;-84
2023/04/13 05:58:49;;;;;;;15.43;1.80;;;;;;;;;;5118074;28;20169;-83
2023/04/13 06:01:17;;;;;;;8.02;1.90;;;;;;;;;;5119443;28;20023;-84
2023/04/13 06:03:43;;;;;;;18.13;2.50;;;;;;;;;;5122012;28;20027;-84
2023/04/13 06:06:09;;;;;;;10.60;1.77;;;;;;;;;;5123416;28;20028;-83
2023/04/13 06:08:35;;;;;;;15.10;1.80;;;;;;;;;;5123751;28;20069;-85
2023/04/13 06:11:01;;;;;;;13.20;2.25;;;;;;;;;;5119740;28;20088;-82
2023/04/13 06:13:27;;;;;;;12.35;2.45;;;;;;;;;;5122018;28;20185;-83
2023/04/13 06:15:53;;;;;;;8.68;1.90;;;;;;;;;;5121738;28;20475;-82
2023/04/13 06:18:19;;;;;;;14.57;2.03;;;;;;;;;;5118804;28;20420;-82
2023/04/13 06:20:46;;;;;;;8.73;1.50;;;;;;;;;;5118733;28;20024;-84
2023/04/13 06:23:12;;;;;;;13.38;1.88;;;;;;;;;;5116916;28;20023;-84
2023/04/13 06:25:39;;;;;;;8.88;1.80;;;;;;;;;;5115355;28;20058;-85
2023/04/13 06:28:05;;;;;;;19.38;2.10;;;;;;;;;;5115739;28;20484;-85
2023/04/13 06:30:31;;;;;;;11.18;2.30;;;;;;;;;;5114790;28;20020;-83
2023/04/13 06:32:58;;;;;;;17.70;2.92;;;;;;;;;;5115152;28;20024;-83
2023/04/13 06:35:24;;;;;;;13.70;2.70;;;;;;;;;;5114615;28;20026;-83
2023/04/13 06:37:50;;;;;;;15.73;2.60;;;;;;;;;;5121206;28;20042;-83
2023/04/13 06:40:16;;;;;;;9.43;1.80;;;;;;;;;;5128411;28;20037;-83
2023/04/13 06:42:42;;;;;;;16.60;2.05;;;;;;;;;;5116184;28;20505;-85
2023/04/13 06:45:09;;;;;;;13.05;2.90;;;;;;;;;;5114328;28;20194;-85
2023/04/13 06:47:36;;;;;;;13.38;1.90;;;;;;;;;;5114739;28;20016;-84
2023/04/13 06:50:05;;;;;;;13.32;2.42;;;;;;;;;;5114935;28;20028;-83
2023/04/13 06:52:33;;;;;;;8.02;1.70;;;;;;;;;;5114615;28;20031;-85
2023/04/13 06:54:59;;;;;;;16.27;2.92;;;;;;;;;;5113733;28;20031;-82
2023/04/13 06:57:25;;;;;;;11.73;2.08;;;;;;;;;;5112952;28;20500;-82
2023/04/13 06:59:51;;;;;;;13.73;2.40;;;;;;;;;;5113906;28;20031;-83
2023/04/13 07:02:17;;;;;;;24.58;2.38;;;;;;;;;;5114106;28;20024;-85
2023/04/13 07:04:43;;;;;;;14.63;2.83;;;;;;;;;;5114301;28;20031;-84
2023/04/13 07:07:10;;;;;;;12.82;2.33;;;;;;;;;;5114464;28;20152;-83
2023/04/13 07:09:36;;;;;;;13.80;2.17;;;;;;;;;;5115529;28;20476;-83
2023/04/13 07:12:03;;;;;;;11.18;2.45;;;;;;;;;;5113283;28;20292;-82
2023/04/13 07:14:32;;;;;;;11.25;1.83;;;;;;;;;;5115297;28;20022;-84
2023/04/13 07:16:58;;;;;;;10.45;2.45;;;;;;;;;;5114931;28;20031;-83
2023/04/13 07:19:26;;;;;;;16.00;2.40;;;;;;;;;;5114250;28;20490;-81
2023/04/13 07:21:52;;;;;;;5.93;1.40;;;;;;;;;;5113596;28;20106;-82
2023/04/13 07:24:18;;;;;;;22.55;1.95;;;;;;;;;;5114427;28;20058;-81
2023/04/13 07:26:44;;;;;;;15.05;2.63;;;;;;;;;;5113089;28;20020;-84
2023/04/13 07:29:12;;;;;;;12.95;2.15;;;;;;;;;;5113678;28;20031;-82
2023/04/13 07:31:38;;;;;;;7.82;1.48;;;;;;;;;;5113624;28;20019;-82
2023/04/13 07:34:05;;;;;;;9.95;1.88;;;;;;;;;;5112937;28;20114;-82
2023/04/13 07:36:31;;;;;;;22.58;3.05;;;;;;;;;;5113423;28;20308;-82
2023/04/13 07:38:57;;;;;;;15.23;3.47;;;;;;;;;;5112145;28;20032;-82
2023/04/13 07:41:23;;;;;;;19.80;3.28;;;;;;;;;;5113086;28;20023;-82
2023/04/13 07:43:50;;;;;;;10.45;2.10;;;;;;;;;;5113023;28;20483;-79
2023/04/13 07:46:16;;;;;;;11.23;2.00;;;;;;;;;;5111320;28;20043;-77
2023/04/13 07:48:43;;;;;;;17.85;3.17;;;;;;;;;;5111352;28;20043;-79
2023/04/13 07:51:16;;;;;;;20.50;3.92;;;;;;;;;;5111739;28;20028;-77
2023/04/13 07:53:42;;;;;;;15.80;2.33;;;;;;;;;;5111739;28;20483;-77
2023/04/13 07:56:08;;;;;;;7.60;1.80;;;;;;;;;;5111805;28;20024;-77
2023/04/13 07:58:34;;;;;;;20.65;2.70;;;;;;;;;;5111360;28;20525;-78
2023/04/13 08:01:01;;;;;;;8.70;1.73;;;;;;;;;;5111429;28;20377;-79
2023/04/13 08:03:30;;;;;;;7.32;1.67;;;;;;;;;;5111450;28;20476;-76
2023/04/13 08:05:56;;;;;;;17.17;2.33;;;;;;;;;;5111581;28;20151;-76
2023/04/13 08:08:23;;;;;;;14.57;2.30;;;;;;;;;;5111350;28;20434;-77
2023/04/13 08:10:49;;;;;;;11.00;3.00;;;;;;;;;;5111551;28;20051;-77
2023/04/13 08:13:16;;;;;;;15.82;2.38;;;;;;;;;;5111998;28;20020;-76
2023/04/13 08:15:42;;;;;;;17.65;3.15;;;;;;;;;;5111583;28;20023;-76
2023/04/13 08:18:08;;;;;;;16.50;2.10;;;;;;;;;;5111419;28;20127;-80
2023/04/13 08:20:36;;;;;;;21.27;2.75;;;;;;;;;;5111892;28;20069;-79
2023/04/13 08:23:02;;;;;;;14.05;2.72;;;;;;;;;;5110068;28;20505;-79
2023/04/13 08:25:28;;;;;;;14.75;1.98;;;;;;;;;;5111356;28;20062;-78
2023/04/13 08:27:55;;;;;;;7.97;2.05;;;;;;;;;;5111772;28;20065;-77
2023/04/13 08:30:21;;;;;;;18.38;3.35;;;;;;;;;;5111573;28;20353;-81
2023/04/13 08:32:47;;;;;;;10.27;1.80;;;;;;;;;;5111697;28;20028;-82
2023/04/13 08:35:14;;;;;;;11.35;2.33;;;;;;;;;;5111685;28;20024;-80
2023/04/13 08:37:41;;;;;;;19.92;3.17;;;;;;;;;;5115610;28;20035;-84
2023/04/13 08:40:10;;;;;;;12.98;2.70;;;;;;;;;;5114501;28;20062;-85
2023/04/13 08:42:38;;;;;;;10.95;2.00;;;;;;;;;;5111399;28;20568;-79
2023/04/13 08:45:04;;;;;;;13.07;2.33;;;;;;;;;;5111038;28;20048;-78
2023/04/13 08:47:31;;;;;;;8.43;1.50;;;;;;;;;;5111395;28;20067;-78
2023/04/13 08:49:58;;;;;;;22.60;2.65;;;;;;;;;;5115210;28;20035;-81
2023/04/13 08:52:27;;;;;;;16.98;2.63;;;;;;;;;;5113479;28;20031;-79
2023/04/13 08:54:54;;;;;;;9.60;2.30;;;;;;;;;;5115050;28;20499;-79
2023/04/13 08:57:20;;;;;;;15.65;2.45;;;;;;;;;;5114611;28;20395;-80
2023/04/13 08:59:47;;;;;;;16.73;2.60;;;;;;;;;;5114966;28;20020;-78
2023/04/13 09:02:13;;;;;;;11.60;2.28;;;;;;;;;;5114557;28;20024;-78
2023/04/13 09:04:42;;;;;;;9.50;2.13;;;;;;;;;;5114728;28;20469;-78
2023/04/13 09:07:12;;;;;;;13.38;1.92;;;;;;;;;;5115015;28;20031;-77
2023/04/13 09:09:38;;;;;;;12.60;2.67;;;;;;;;;;5115876;28;20099;-81
2023/04/13 09:12:04;;;;;;;12.50;2.88;;;;;;;;;;5118028;28;20110;-77
2023/04/13 09:14:31;;;;;;;12.07;2.58;;;;;;;;;;5116238;28;20092;-78
2023/04/13 09:16:57;;;;;;;16.55;2.65;;;;;;;;;;5114490;28;20028;-79
2023/04/13 09:19:30;;;;;;;16.58;2.97;;;;;;;;;;5114577;28;20024;-79
2023/04/13 09:21:56;;;;;;;11.18;1.75;;;;;;;;;;5114528;28;20026;-80
2023/04/13 09:24:22;;;;;;;15.23;2.70;;;;;;;;;;5113245;28;20068;-81
2023/04/13 09:26:49;;;;;;;15.75;2.53;;;;;;;;;;5114818;28;20047;-80
2023/04/13 09:29:21;;;;;;;12.50;1.77;;;;;;;;;;5114661;28;20027;-78
2023/04/13 09:31:47;;;;;;;12.05;2.38;;;;;;;;;;5114521;28;20501;-79
2023/04/13 09:34:14;;;;;;;19.02;2.08;;;;;;;;;;5114157;28;20074;-78
2023/04/13 09:36:40;;;;;;;19.95;2.53;;;;;;;;;;5114086;27;20432;-78
2023/04/13 09:39:07;;;;;;;12.48;1.70;;;;;;;;;;5114516;28;20051;-78
2023/04/13 09:41:45;;;;;;;12.55;1.95;;;;;;;;;;5114005;28;20384;-78
2023/04/13 09:44:26;;;;;;;14.20;2.10;;;;;;;;;;5114056;28;20016;-77
2023/04/13 09:46:59;;;;;;;12.70;2.17;;;;;;;;;;5113789;28;20055;-76
2023/04/13 09:49:25;;;;;;;7.95;2.05;;;;;;;;;;5113877;28;20027;-78
2023/04/13 09:51:52;;;;;;;6.25;1.60;;;;;;;;;;5112702;28;20024;-79
2023/04/13 09:54:21;;;;;;;8.02;2.60;;;;;;;;;;5114103;28;20019;-78
2023/04/13 09:56:53;;;;;;;14.73;2.08;;;;;;;;;;5112463;28;20540;-78
2023/04/13 09:59:19;;;;;;;16.63;2.47;;;;;;;;;;5114023;28;20465;-78
2023/04/13 10:01:45;;;;;;;14.38;3.60;;;;;;;;;;5113287;28;20027;-79
2023/04/13 10:04:12;;;;;;;12.80;2.00;;;;;;;;;;5113551;28;20085;-77
2023/04/13 10:06:39;;;;;;;9.43;1.48;;;;;;;;;;5112294;28;20023;-77
2023/04/13 10:09:05;;;;;;;9.15;1.92;;;;;;;;;;5112233;28;20480;-78
2023/04/13 10:11:33;;;;;;;8.48;1.63;;;;;;;;;;5113213;28;20103;-78
2023/04/13 10:14:01;;;;;;;14.93;2.30;;;;;;;;;;5113269;28;20480;-78
2023/04/13 10:16:35;;;;;;;6.57;1.58;;;;;;;;;;5113108;28;20051;-79
2023/04/13 10:19:09;;;;;;;8.88;1.50;;;;;;;;;;5113521;28;20027;-79
2023/04/13 10:21:38;;;;;;;10.07;1.42;;;;;;;;;;5113317;28;20023;-78
2023/04/13 10:24:05;;;;;;;8.93;1.30;;;;;;;;;;5113037;28;20030;-81
2023/04/13 10:26:31;;;;;;;7.70;1.70;;;;;;;;;;5113307;28;20039;-79
2023/04/13 10:28:58;;;;;;;11.55;1.77;;;;;;;;;;5113212;28;20024;-79
2023/04/13 10:31:36;;;;;;;12.00;1.80;;;;;;;;;;5115339;28;20040;-84
2023/04/13 10:34:04;;;;;;;28.23;2.45;;;;;;;;;;5113836;28;20030;-83
2023/04/13 10:36:37;;;;;;;8.05;1.65;;;;;;;;;;5113923;27;20431;-83
2023/04/13 10:39:03;;;;;;;5.80;1.40;;;;;;;;;;5114073;28;20546;-84
2023/04/13 10:41:29;;;;;;;8.93;1.60;;;;;;;;;;5114919;28;20031;-82
2023/04/13 10:44:01;;;;;;;4.75;1.42;;;;;;;;;;5117080;28;20020;-83
2023/04/13 10:46:28;;;;;;;11.65;1.27;;;;;;;;;;5114846;28;20036;-84
2023/04/13 10:48:58;;;;;;;8.07;1.55;;;;;;;;;;5114698;28;20036;-84
2023/04/13 10:51:26;;;;;;;18.20;2.05;;;;;;;;;;5118283;27;20015;-83
2023/04/13 10:53:53;;;;;;;8.07;1.90;;;;;;;;;;5125385;28;20020;-82
2023/04/13 10:56:19;;;;;;;3.72;1.10;;;;;;;;;;5118277;28;20160;-83
2023/04/13 10:58:54;;;;;;;9.23;1.50;;;;;;;;;;5113837;28;20028;-84
2023/04/13 11:01:21;;;;;;;8.18;1.13;;;;;;;;;;5113019;28;20402;-83
2023/04/13 11:03:48;;;;;;;13.68;2.22;;;;;;;;;;5113440;28;20030;-83
2023/04/13 11:06:15;;;;;;;17.33;2.00;;;;;;;;;;5112391;28;20029;-84
2023/04/13 11:08:42;;;;;;;15.70;1.85;;;;;;;;;;5112753;28;20024;-84
2023/04/13 11:11:10;;;;;;;5.43;1.10;;;;;;;;;;5112565;28;20216;-83
2023/04/13 11:13:43;;;;;;;5.97;1.20;;;;;;;;;;5111656;28;20027;-84
2023/04/13 11:16:09;;;;;;;9.82;1.70;;;;;;;;;;5112694;28;20024;-84
2023/04/13 11:18:35;;;;;;;8.57;1.48;;;;;;;;;;5111405;28;20037;-84
2023/04/13 11:21:04;;;;;;;8.13;1.25;;;;;;;;;;5112550;28;20114;-83
2023/04/13 11:23:33;;;;;;;9.90;1.98;;;;;;;;;;5112624;28;20023;-83
2023/04/13 11:26:00;;;;;;;23.50;2.38;;;;;;;;;;5113625;28;20495;-83
2023/04/13 11:28:44;;;;;;;7.75;1.58;;;;;;;;;;5112721;28;20024;-80
2023/04/13 11:31:11;;;;;;;9.48;1.70;;;;;;;;;;5112060;28;20027;-82
2023/04/13 11:33:37;;;;;;;8.30;1.67;;;;;;;;;;5112332;28;20471;-83
2023/04/13 11:36:03;;;;;;;11.18;1.20;;;;;;;;;;5112659;28;20537;-82
2023/04/13 11:38:29;;;;;;;9.68;1.30;;;;;;;;;;5111480;28;20032;-84
2023/04/13 11:41:01;;;;;;;5.97;1.52;;;;;;;;;;5112984;28;20471;-84
2023/04/13 11:43:27;;;;;;;8.82;1.60;;;;;;;;;;5113628;28;20031;-84
2023/04/13 11:45:53;;;;;;;21.42;2.13;;;;;;;;;;5112269;28;20051;-79
2023/04/13 11:48:20;;;;;;;11.40;2.13;;;;;;;;;;5111872;28;20031;-80
2023/04/13 11:50:46;;;;;;;8.70;1.42;;;;;;;;;;5111935;28;20028;-79
2023/04/13 11:53:12;;;;;;;6.28;1.20;;;;;;;;;;5111785;28;20031;-79
2023/04/13 11:55:40;;;;;;;7.72;1.10;;;;;;;;;;5111638;28;20015;-77
2023/04/13 11:58:08;;;;;;;8.32;1.38;;;;;;;;;;5111470;28;20031;-79
2023/04/13 12:00:36;;;;;;;12.95;1.63;;;;;;;;;;5110306;28;20024;-80
2023/04/13 12:03:04;;;;;;;14.13;1.48;;;;;;;;;;5112220;28;20020;-82
2023/04/13 12:05:30;;;;;;;7.13;1.33;;;;;;;;;;5112198;28;20019;-76
2023/04/13 12:07:57;;;;;;;7.95;1.27;;;;;;;;;;5110149;28;20036;-79
2023/04/13 12:10:23;;;;;;;8.32;1.60;;;;;;;;;;5111257;28;20074;-78
2023/04/13 12:12:57;;;;;;;11.35;1.10;;;;;;;;;;5111465;28;20030;-78
2023/04/13 12:15:27;;;;;;;12.13;2.10;;;;;;;;;;5111578;28;20012;-80
2023/04/13 12:17:57;;;;;;;3.95;1.20;;;;;;;;;;5110362;28;20055;-80
2023/04/13 12:20:24;;;;;;;11.40;1.65;;;;;;;;;;5111357;28;20034;-79
2023/04/13 12:22:50;;;;;;;13.45;2.67;;;;;;;;;;5110191;28;20031;-79
2023/04/13 12:25:18;;;;;;;7.80;1.30;;;;;;;;;;5115531;28;20107;-79
2023/04/13 12:27:45;;;;;;;12.95;1.95;;;;;;;;;;5115704;28;20480;-80
2023/04/13 12:30:15;;;;;;;7.68;1.48;;;;;;;;;;5115464;28;20388;-79
2023/04/13 12:32:45;;;;;;;7.18;1.65;;;;;;;;;;5115302;28;20084;-78
2023/04/13 12:35:11;;;;;;;10.32;2.28;;;;;;;;;;5115261;28;20093;-80
2023/04/13 12:37:41;;;;;;;9.15;1.80;;;;;;;;;;5115397;28;20032;-79
2023/04/13 12:40:11;;;;;;;10.25;1.80;;;;;;;;;;5115312;28;20031;-80
2023/04/13 12:42:42;;;;;;;9.05;1.60;;;;;;;;;;5115219;28;20384;-80
2023/04/13 12:45:09;;;;;;;4.25;1.20;;;;;;;;;;5115121;28;20483;-80
2023/04/13 12:47:36;;;;;;;11.02;1.70;;;;;;;;;;5115102;28;20087;-80
2023/04/13 12:50:05;;;;;;;10.77;1.60;;;;;;;;;;5115123;28;20020;-80
2023/04/13 12:52:32;;;;;;;7.90;1.30;;;;;;;;;;5116170;28;20027;-79
2023/04/13 12:54:58;;;;;;;4.93;0.93;;;;;;;;;;5116890;28;20057;-79
2023/04/13 12:57:25;;;;;;;7.43;1.33;;;;;;;;;;5116731;28;20349;-79
2023/04/13 12:59:51;;;;;;;5.32;1.50;;;;;;;;;;5117584;28;20023;-80
2023/04/13 13:02:17;;;;;;;5.80;0.80;;;;;;;;;;5116654;28;20062;-80
2023/04/13 13:04:44;;;;;;;7.35;1.13;;;;;;;;;;5113618;28;20677;-79
2023/04/13 13:07:10;;;;;;;8.73;1.35;;;;;;;;;;5114561;28;20027;-78
2023/04/13 13:09:36;;;;;;;6.05;1.35;;;;;;;;;;5115138;28;20023;-78
2023/04/13 13:12:02;;;;;;;9.73;1.45;;;;;;;;;;5115135;28;20081;-78
2023/04/13 13:14:28;;;;;;;7.03;0.93;;;;;;;;;;5113458;28;20088;-78
2023/04/13 13:16:54;;;;;;;7.57;1.35;;;;;;;;;;5114534;28;20091;-80
2023/04/13 13:19:20;;;;;;;6.20;1.35;;;;;;;;;;5113155;28;20472;-80
2023/04/13 13:21:46;;;;;;;5.72;1.40;;;;;;;;;;5114635;28;20491;-79
2023/04/13 13:24:12;;;;;;;8.63;1.48;;;;;;;;;;5114386;28;20031;-85
2023/04/13 13:26:38;;;;;;;7.78;1.70;;;;;;;;;;5115073;28;20027;-78
2023/04/13 13:29:04;;;;;;;7.50;1.30;;;;;;;;;;5114034;28;20026;-78
2023/04/13 13:31:30;;;;;;;13.32;1.80;;;;;;;;;;5114513;28;20421;-80
2023/04/13 13:33:56;;;;;;;10.07;1.77;;;;;;;;;;5114486;28;20112;-80
2023/04/13 13:36:22;;;;;;;10.95;1.25;;;;;;;;;;5113430;28;20429;-79
2023/04/13 13:38:48;;;;;;;9.13;1.50;;;;;;;;;;5113919;28;20053;-79
2023/04/13 13:41:15;;;;;;;5.40;1.80;;;;;;;;;;5114126;28;20102;-78
2023/04/13 13:43:41;;;;;;;6.25;1.05;;;;;;;;;;5112956;28;20400;-84
2023/04/13 13:46:07;;;;;;;10.32;1.83;;;;;;;;;;5114463;28;20130;-84
2023/04/13 13:48:33;;;;;;;17.52;1.60;;;;;;;;;;5114783;28;20028;-84
2023/04/13 13:50:59;;;;;;;10.43;2.00;;;;;;;;;;5114493;28;20024;-80
2023/04/13 13:53:25;;;;;;;6.97;1.00;;;;;;;;;;5112919;28;20027;-84
2023/04/13 13:55:52;;;;;;;12.80;1.38;;;;;;;;;;5114030;28;20066;-84
2023/04/13 13:58:18;;;;;;;10.13;1.83;;;;;;;;;;5113426;28;20036;-79
2023/04/13 14:00:44;;;;;;;4.30;0.77;;;;;;;;;;5113571;28;20028;-80
2023/04/13 14:03:10;;;;;;;7.07;1.33;;;;;;;;;;5113647;28;20102;-83
2023/04/13 14:05:36;;;;;;;7.88;1.00;;;;;;;;;;5113843;28;20031;-80
2023/04/13 14:08:03;;;;;;;6.80;1.15;;;;;;;;;;5113587;28;20034;-85
2023/04/13 14:10:29;;;;;;;9.80;1.75;;;;;;;;;;5113531;28;20023;-79
2023/04/13 14:12:55;;;;;;;5.70;1.48;;;;;;;;;;5113598;28;20020;-82
2023/04/13 14:15:21;;;;;;;4.45;1.10;;;;;;;;;;5113380;28;20418;-81
2023/04/13 14:17:47;;;;;;;1.77;0.50;;;;;;;;;;5113487;28;20027;-80
2023/04/13 14:20:14;;;;;;;6.45;1.00;;;;;;;;;;5113471;28;20023;-80
2023/04/13 14:22:40;;;;;;;4.40;1.45;;;;;;;;;;5112108;28;20476;-79
2023/04/13 14:25:10;;;;;;;8.20;1.25;;;;;;;;;;5113240;28;20476;-83
2023/04/13 14:27:37;;;;;;;7.18;1.33;;;;;;;;;;5113215;28;20491;-83
2023/04/13 14:30:03;;;;;;;6.45;1.27;;;;;;;;;;5113108;28;20030;-82
2023/04/13 14:32:30;;;;;;;6.63;1.25;;;;;;;;;;5113077;28;20019;-78
2023/04/13 14:34:56;;;;;;;8.40;1.42;;;;;;;;;;5113326;28;20031;-79